sensor_id;sensor_type;location;lat;lon;timestamp;pressure;altitude;pressure_sealevel;temperature;humidity
81107;BME280;70588;53.172;8.620;2023-07-31T00:01:17;100622.44;;;20.56;54.42
81107;BME280;70588;53.172;8.620;2023-07-31T00:03:42;100615.03;;;20.56;54.71
81107;BME280;70588;53.172;8.620;2023-07-31T00:06:07;100616.69;;;20.57;54.83
81107;BME280;70588;53.172;8.620;2023-07-31T00:08:33;100620.03;;;20.59;55.06
81107;BME280;70588;53.172;8.620;2023-07-31T00:10:58;100611.22;;;20.57;54.88
81107;BME280;70588;53.172;8.620;2023-07-31T00:13:24;100614.78;;;20.58;55.20
81107;BME280;70588;53.172;8.620;2023-07-31T00:15:49;100605.50;;;20.59;55.49
81107;BME280;70588;53.172;8.620;2023-07-31T00:18:15;100604.63;;;20.58;55.67
81107;BME280;70588;53.172;8.620;2023-07-31T00:20:40;100607.13;;;20.60;56.32
81107;BME280;70588;53.172;8.620;2023-07-31T00:23:06;100599.13;;;20.58;55.62
81107;BME280;70588;53.172;8.620;2023-07-31T00:25:31;100598.31;;;20.58;55.96
81107;BME280;70588;53.172;8.620;2023-07-31T00:27:56;100601.88;;;20.58;55.85
81107;BME280;70588;53.172;8.620;2023-07-31T00:30:22;100603.25;;;20.56;55.67
81107;BME280;70588;53.172;8.620;2023-07-31T00:32:47;100594.19;;;20.55;55.72
81107;BME280;70588;53.172;8.620;2023-07-31T00:35:13;100602.41;;;20.55;56.12
81107;BME280;70588;53.172;8.620;2023-07-31T00:37:38;100591.72;;;20.53;55.87
81107;BME280;70588;53.172;8.620;2023-07-31T00:40:04;100590.03;;;20.52;55.88
81107;BME280;70588;53.172;8.620;2023-07-31T00:42:29;100587.59;;;20.51;55.85
81107;BME280;70588;53.172;8.620;2023-07-31T00:44:55;100583.75;;;20.52;55.89
81107;BME280;70588;53.172;8.620;2023-07-31T00:47:20;100584.84;;;20.51;55.77
81107;BME280;70588;53.172;8.620;2023-07-31T00:49:46;100588.66;;;20.50;55.87
81107;BME280;70588;53.172;8.620;2023-07-31T00:52:12;100588.09;;;20.48;55.96
81107;BME280;70588;53.172;8.620;2023-07-31T00:54:37;100581.25;;;20.45;55.93
81107;BME280;70588;53.172;8.620;2023-07-31T00:57:03;100576.81;;;20.44;56.01
81107;BME280;70588;53.172;8.620;2023-07-31T00:59:28;100573.28;;;20.44;56.11
81107;BME280;70588;53.172;8.620;2023-07-31T01:01:54;100572.72;;;20.42;56.08
81107;BME280;70588;53.172;8.620;2023-07-31T01:04:20;100568.88;;;20.43;56.03
81107;BME280;70588;53.172;8.620;2023-07-31T01:07:08;100573.88;;;20.51;55.72
81107;BME280;70588;53.172;8.620;2023-07-31T01:12:15;100579.31;;;20.46;56.10
81107;BME280;70588;53.172;8.620;2023-07-31T01:14:51;100579.34;;;20.51;55.78
81107;BME280;70588;53.172;8.620;2023-07-31T01:17:16;100579.28;;;20.41;56.29
81107;BME280;70588;53.172;8.620;2023-07-31T01:19:42;100577.38;;;20.41;55.88
81107;BME280;70588;53.172;8.620;2023-07-31T01:28:07;100580.69;;;20.48;56.32
81107;BME280;70588;53.172;8.620;2023-07-31T01:30:38;100576.56;;;20.46;56.32
81107;BME280;70588;53.172;8.620;2023-07-31T01:33:06;100574.88;;;20.40;56.52
81107;BME280;70588;53.172;8.620;2023-07-31T01:35:36;100566.72;;;20.45;56.38
81107;BME280;70588;53.172;8.620;2023-07-31T01:38:02;100559.25;;;20.40;56.70
81107;BME280;70588;53.172;8.620;2023-07-31T01:40:28;100559.25;;;20.40;56.62
81107;BME280;70588;53.172;8.620;2023-07-31T01:42:54;100552.13;;;20.39;57.08
81107;BME280;70588;53.172;8.620;2023-07-31T01:45:19;100546.91;;;20.38;57.34
81107;BME280;70588;53.172;8.620;2023-07-31T01:47:45;100553.50;;;20.37;57.04
81107;BME280;70588;53.172;8.620;2023-07-31T01:50:10;100553.50;;;20.37;56.97
81107;BME280;70588;53.172;8.620;2023-07-31T01:52:36;100534.81;;;20.33;57.32
81107;BME280;70588;53.172;8.620;2023-07-31T01:55:01;100532.91;;;20.34;57.70
81107;BME280;70588;53.172;8.620;2023-07-31T01:57:26;100526.84;;;20.32;57.80
81107;BME280;70588;53.172;8.620;2023-07-31T01:59:52;100529.56;;;20.27;57.84
81107;BME280;70588;53.172;8.620;2023-07-31T02:02:19;100524.63;;;20.24;57.66
81107;BME280;70588;53.172;8.620;2023-07-31T02:04:44;100518.56;;;20.22;57.99
81107;BME280;70588;53.172;8.620;2023-07-31T02:07:09;100516.09;;;20.20;58.09
81107;BME280;70588;53.172;8.620;2023-07-31T02:09:35;100516.09;;;20.20;58.31
81107;BME280;70588;53.172;8.620;2023-07-31T02:12:00;100517.44;;;20.18;58.70
81107;BME280;70588;53.172;8.620;2023-07-31T02:14:26;100513.31;;;20.15;58.79
81107;BME280;70588;53.172;8.620;2023-07-31T02:16:51;100526.72;;;20.11;58.77
81107;BME280;70588;53.172;8.620;2023-07-31T02:19:16;100536.56;;;20.12;58.71
81107;BME280;70588;53.172;8.620;2023-07-31T02:21:42;100522.88;;;20.12;58.73
81107;BME280;70588;53.172;8.620;2023-07-31T02:24:07;100526.47;;;20.13;58.68
81107;BME280;70588;53.172;8.620;2023-07-31T02:26:32;100522.63;;;20.14;58.93
81107;BME280;70588;53.172;8.620;2023-07-31T02:28:58;100523.97;;;20.11;59.20
81107;BME280;70588;53.172;8.620;2023-07-31T02:31:23;100513.53;;;20.08;59.16
81107;BME280;70588;53.172;8.620;2023-07-31T02:33:48;100515.44;;;20.08;59.10
81107;BME280;70588;53.172;8.620;2023-07-31T02:36:14;100503.94;;;20.06;59.02
81107;BME280;70588;53.172;8.620;2023-07-31T02:38:40;100515.44;;;20.08;59.27
81107;BME280;70588;53.172;8.620;2023-07-31T02:41:05;100515.72;;;20.06;59.38
81107;BME280;70588;53.172;8.620;2023-07-31T02:43:30;100511.06;;;20.07;59.40
81107;BME280;70588;53.172;8.620;2023-07-31T02:45:56;100516.00;;;20.05;59.46
81107;BME280;70588;53.172;8.620;2023-07-31T02:48:21;100505.84;;;20.05;59.83
81107;BME280;70588;53.172;8.620;2023-07-31T02:50:47;100509.66;;;20.04;59.73
81107;BME280;70588;53.172;8.620;2023-07-31T02:53:13;100511.28;;;20.00;59.82
81107;BME280;70588;53.172;8.620;2023-07-31T02:55:38;100508.81;;;19.99;60.02
81107;BME280;70588;53.172;8.620;2023-07-31T02:58:04;100503.34;;;19.99;59.94
81107;BME280;70588;53.172;8.620;2023-07-31T03:00:30;100508.81;;;19.99;60.13
81107;BME280;70588;53.172;8.620;2023-07-31T03:02:55;100505.53;;;19.97;60.24
81107;BME280;70588;53.172;8.620;2023-07-31T03:05:20;100506.09;;;19.99;60.09
81107;BME280;70588;53.172;8.620;2023-07-31T03:07:46;100513.19;;;20.00;60.28
81107;BME280;70588;53.172;8.620;2023-07-31T03:10:11;100504.97;;;20.00;60.28
81107;BME280;70588;53.172;8.620;2023-07-31T03:12:37;100507.47;;;20.01;60.17
81107;BME280;70588;53.172;8.620;2023-07-31T03:15:02;100505.81;;;20.00;60.25
81107;BME280;70588;53.172;8.620;2023-07-31T03:17:28;100501.69;;;19.98;60.29
81107;BME280;70588;53.172;8.620;2023-07-31T03:19:53;100499.75;;;19.98;60.76
81107;BME280;70588;53.172;8.620;2023-07-31T03:22:18;100504.41;;;19.98;60.65
81107;BME280;70588;53.172;8.620;2023-07-31T03:24:44;100505.53;;;19.97;60.94
81107;BME280;70588;53.172;8.620;2023-07-31T03:27:09;100496.19;;;19.92;60.67
81107;BME280;70588;53.172;8.620;2023-07-31T03:29:35;100500.00;;;19.91;60.86
81107;BME280;70588;53.172;8.620;2023-07-31T03:32:00;100493.44;;;19.92;60.92
81107;BME280;70588;53.172;8.620;2023-07-31T03:34:26;100488.47;;;19.89;60.82
81107;BME280;70588;53.172;8.620;2023-07-31T03:36:51;100483.00;;;19.89;61.08
81107;BME280;70588;53.172;8.620;2023-07-31T03:39:16;100488.72;;;19.88;60.93
81107;BME280;70588;53.172;8.620;2023-07-31T03:41:42;100479.69;;;19.87;61.12
81107;BME280;70588;53.172;8.620;2023-07-31T03:44:07;100489.84;;;19.87;61.13
81107;BME280;70588;53.172;8.620;2023-07-31T03:46:33;100488.41;;;19.84;61.07
81107;BME280;70588;53.172;8.620;2023-07-31T03:48:59;100487.59;;;19.84;61.09
81107;BME280;70588;53.172;8.620;2023-07-31T03:51:24;100482.94;;;19.84;61.49
81107;BME280;70588;53.172;8.620;2023-07-31T03:53:49;100486.22;;;19.81;61.33
81107;BME280;70588;53.172;8.620;2023-07-31T03:56:15;100481.56;;;19.82;61.45
81107;BME280;70588;53.172;8.620;2023-07-31T03:58:40;100486.22;;;19.81;61.25
81107;BME280;70588;53.172;8.620;2023-07-31T04:01:05;100492.22;;;19.78;61.45
81107;BME280;70588;53.172;8.620;2023-07-31T04:03:31;100487.56;;;19.79;61.57
81107;BME280;70588;53.172;8.620;2023-07-31T04:05:56;100476.63;;;19.79;61.57
81107;BME280;70588;53.172;8.620;2023-07-31T04:08:22;100484.56;;;19.80;61.75
81107;BME280;70588;53.172;8.620;2023-07-31T04:10:48;100472.78;;;19.80;61.73
81107;BME280;70588;53.172;8.620;2023-07-31T04:13:13;100471.41;;;19.82;61.92
81107;BME280;70588;53.172;8.620;2023-07-31T04:15:39;100467.03;;;19.81;61.64
81107;BME280;70588;53.172;8.620;2023-07-31T04:18:05;100467.03;;;19.81;61.97
81107;BME280;70588;53.172;8.620;2023-07-31T04:20:30;100462.06;;;19.78;62.29
81107;BME280;70588;53.172;8.620;2023-07-31T04:22:56;100458.28;;;19.79;62.33
81107;BME280;70588;53.172;8.620;2023-07-31T04:25:21;100453.88;;;19.78;62.15
81107;BME280;70588;53.172;8.620;2023-07-31T04:27:47;100451.97;;;19.79;62.02
81107;BME280;70588;53.172;8.620;2023-07-31T04:30:12;100455.78;;;19.78;62.08
81107;BME280;70588;53.172;8.620;2023-07-31T04:32:37;100449.22;;;19.79;61.91
81107;BME280;70588;53.172;8.620;2023-07-31T04:35:03;100445.38;;;19.80;62.05
81107;BME280;70588;53.172;8.620;2023-07-31T04:37:29;100447.88;;;19.81;62.18
81107;BME280;70588;53.172;8.620;2023-07-31T04:39:54;100448.19;;;19.85;62.08
81107;BME280;70588;53.172;8.620;2023-07-31T04:42:19;100450.38;;;19.88;61.85
81107;BME280;70588;53.172;8.620;2023-07-31T04:44:45;100455.59;;;19.89;62.05
81107;BME280;70588;53.172;8.620;2023-07-31T04:47:10;100457.81;;;19.92;62.03
81107;BME280;70588;53.172;8.620;2023-07-31T04:49:36;100456.72;;;19.93;62.02
81107;BME280;70588;53.172;8.620;2023-07-31T04:52:01;100451.25;;;19.93;62.06
81107;BME280;70588;53.172;8.620;2023-07-31T04:54:27;100448.75;;;19.92;61.93
81107;BME280;70588;53.172;8.620;2023-07-31T04:56:52;100443.28;;;19.92;62.17
81107;BME280;70588;53.172;8.620;2023-07-31T04:59:18;100443.03;;;19.93;61.97
81107;BME280;70588;53.172;8.620;2023-07-31T05:01:43;100443.59;;;19.96;61.85
81107;BME280;70588;53.172;8.620;2023-07-31T05:04:13;100451.00;;;20.00;62.05
81107;BME280;70588;53.172;8.620;2023-07-31T05:06:39;100445.81;;;19.99;61.88
81107;BME280;70588;53.172;8.620;2023-07-31T05:09:04;100443.06;;;19.99;61.97
81107;BME280;70588;53.172;8.620;2023-07-31T05:11:30;100448.25;;;20.00;61.83
81107;BME280;70588;53.172;8.620;2023-07-31T05:13:55;100437.03;;;20.02;61.67
81107;BME280;70588;53.172;8.620;2023-07-31T05:16:20;100442.28;;;20.03;61.87
81107;BME280;70588;53.172;8.620;2023-07-31T05:18:46;100436.53;;;20.05;61.91
81107;BME280;70588;53.172;8.620;2023-07-31T05:21:11;100432.69;;;20.06;61.94
81107;BME280;70588;53.172;8.620;2023-07-31T05:23:36;100433.25;;;20.08;61.68
81107;BME280;70588;53.172;8.620;2023-07-31T05:26:06;100427.81;;;20.13;61.68
81107;BME280;70588;53.172;8.620;2023-07-31T05:28:33;100424.22;;;20.07;61.73
81107;BME280;70588;53.172;8.620;2023-07-31T05:31:02;100424.78;;;20.09;61.86
81107;BME280;70588;53.172;8.620;2023-07-31T05:33:28;100422.84;;;20.05;62.01
81107;BME280;70588;53.172;8.620;2023-07-31T05:35:53;100415.44;;;20.05;62.40
81107;BME280;70588;53.172;8.620;2023-07-31T05:38:18;100415.44;;;20.05;62.34
81107;BME280;70588;53.172;8.620;2023-07-31T05:40:44;100403.09;;;20.08;62.67
81107;BME280;70588;53.172;8.620;2023-07-31T05:43:09;100406.66;;;20.08;62.64
81107;BME280;70588;53.172;8.620;2023-07-31T05:45:35;100406.41;;;20.10;62.82
81107;BME280;70588;53.172;8.620;2023-07-31T05:48:01;100408.88;;;20.11;62.67
81107;BME280;70588;53.172;8.620;2023-07-31T05:50:26;100411.13;;;20.15;62.67
81107;BME280;70588;53.172;8.620;2023-07-31T05:52:51;100405.09;;;20.18;62.56
81107;BME280;70588;53.172;8.620;2023-07-31T05:55:17;100414.69;;;20.20;62.81
81107;BME280;70588;53.172;8.620;2023-07-31T05:57:42;100407.31;;;20.21;62.52
81107;BME280;70588;53.172;8.620;2023-07-31T06:00:08;100408.94;;;20.22;62.88
81107;BME280;70588;53.172;8.620;2023-07-31T06:02:34;100395.50;;;20.20;62.57
81107;BME280;70588;53.172;8.620;2023-07-31T06:05:02;100401.81;;;20.21;62.53
81107;BME280;70588;53.172;8.620;2023-07-31T06:07:29;100407.31;;;20.21;62.64
81107;BME280;70588;53.172;8.620;2023-07-31T06:09:54;100402.38;;;20.23;62.62
81107;BME280;70588;53.172;8.620;2023-07-31T06:12:20;100393.31;;;20.22;62.54
81107;BME280;70588;53.172;8.620;2023-07-31T06:14:46;100405.13;;;20.23;62.80
81107;BME280;70588;53.172;8.620;2023-07-31T06:17:11;100388.94;;;20.21;62.89
81107;BME280;70588;53.172;8.620;2023-07-31T06:19:36;100391.41;;;20.23;63.04
81107;BME280;70588;53.172;8.620;2023-07-31T06:22:02;100385.38;;;20.21;62.95
81107;BME280;70588;53.172;8.620;2023-07-31T06:24:28;100391.13;;;20.24;63.12
81107;BME280;70588;53.172;8.620;2023-07-31T06:26:53;100386.50;;;20.25;62.97
81107;BME280;70588;53.172;8.620;2023-07-31T06:29:19;100388.94;;;20.26;63.10
81107;BME280;70588;53.172;8.620;2023-07-31T06:31:44;100387.31;;;20.30;63.23
81107;BME280;70588;53.172;8.620;2023-07-31T06:34:10;100383.22;;;20.33;63.62
81107;BME280;70588;53.172;8.620;2023-07-31T06:36:35;100379.69;;;20.38;63.17
81107;BME280;70588;53.172;8.620;2023-07-31T06:39:00;100381.34;;;20.39;62.97
81107;BME280;70588;53.172;8.620;2023-07-31T06:41:26;100376.38;;;20.36;63.06
81107;BME280;70588;53.172;8.620;2023-07-31T06:43:51;100371.19;;;20.39;63.18
81107;BME280;70588;53.172;8.620;2023-07-31T06:46:16;100369.28;;;20.40;63.02
81107;BME280;70588;53.172;8.620;2023-07-31T06:48:42;100372.56;;;20.42;62.99
81107;BME280;70588;53.172;8.620;2023-07-31T06:51:07;100379.72;;;20.43;62.99
81107;BME280;70588;53.172;8.620;2023-07-31T06:53:33;100376.41;;;20.46;63.11
81107;BME280;70588;53.172;8.620;2023-07-31T06:55:58;100382.47;;;20.48;63.05
81107;BME280;70588;53.172;8.620;2023-07-31T06:58:23;100380.28;;;20.50;62.99
81107;BME280;70588;53.172;8.620;2023-07-31T07:00:49;100379.75;;;20.53;63.15
81107;BME280;70588;53.172;8.620;2023-07-31T07:03:17;100372.88;;;20.56;62.95
81107;BME280;70588;53.172;8.620;2023-07-31T07:05:43;100377.56;;;20.55;63.04
81107;BME280;70588;53.172;8.620;2023-07-31T07:08:08;100368.78;;;20.58;62.94
81107;BME280;70588;53.172;8.620;2023-07-31T07:10:33;100365.00;;;20.59;63.07
81107;BME280;70588;53.172;8.620;2023-07-31T07:12:59;100366.34;;;20.62;63.22
81107;BME280;70588;53.172;8.620;2023-07-31T07:15:24;100357.59;;;20.65;63.18
81107;BME280;70588;53.172;8.620;2023-07-31T07:17:50;100348.00;;;20.67;63.15
81107;BME280;70588;53.172;8.620;2023-07-31T07:20:15;100353.78;;;20.71;62.93
81107;BME280;70588;53.172;8.620;2023-07-31T07:22:41;100357.88;;;20.74;63.02
81107;BME280;70588;53.172;8.620;2023-07-31T07:25:08;100354.59;;;20.77;63.12
81107;BME280;70588;53.172;8.620;2023-07-31T07:27:34;100354.31;;;20.78;63.07
81107;BME280;70588;53.172;8.620;2023-07-31T07:29:59;100357.63;;;20.80;63.06
81107;BME280;70588;53.172;8.620;2023-07-31T07:32:25;100340.88;;;20.82;62.84
81107;BME280;70588;53.172;8.620;2023-07-31T07:34:50;100338.97;;;20.82;62.91
81107;BME280;70588;53.172;8.620;2023-07-31T07:37:16;100341.72;;;20.82;62.79
81107;BME280;70588;53.172;8.620;2023-07-31T07:39:41;100337.06;;;20.83;62.98
81107;BME280;70588;53.172;8.620;2023-07-31T07:42:07;100336.78;;;20.84;63.05
81107;BME280;70588;53.172;8.620;2023-07-31T07:44:32;100339.81;;;20.83;63.11
81107;BME280;70588;53.172;8.620;2023-07-31T07:46:58;100335.97;;;20.84;63.26
81107;BME280;70588;53.172;8.620;2023-07-31T07:49:23;100332.13;;;20.85;63.48
81107;BME280;70588;53.172;8.620;2023-07-31T07:51:49;100340.63;;;20.83;63.39
81107;BME280;70588;53.172;8.620;2023-07-31T07:54:14;100332.41;;;20.83;63.54
81107;BME280;70588;53.172;8.620;2023-07-31T07:56:42;100333.75;;;20.86;63.47
81107;BME280;70588;53.172;8.620;2023-07-31T07:59:08;100325.78;;;20.84;64.00
81107;BME280;70588;53.172;8.620;2023-07-31T08:01:33;100333.22;;;20.84;63.77
81107;BME280;70588;53.172;8.620;2023-07-31T08:03:59;100328.00;;;20.82;63.70
81107;BME280;70588;53.172;8.620;2023-07-31T08:06:24;100324.44;;;20.82;64.12
81107;BME280;70588;53.172;8.620;2023-07-31T08:08:50;100329.09;;;20.81;64.19
81107;BME280;70588;53.172;8.620;2023-07-31T08:11:15;100328.00;;;20.82;64.46
81107;BME280;70588;53.172;8.620;2023-07-31T08:13:40;100320.59;;;20.83;64.27
81107;BME280;70588;53.172;8.620;2023-07-31T08:16:06;100321.41;;;20.83;64.05
81107;BME280;70588;53.172;8.620;2023-07-31T08:18:31;100317.31;;;20.86;64.23
81107;BME280;70588;53.172;8.620;2023-07-31T08:20:57;100314.28;;;20.87;63.79
81107;BME280;70588;53.172;8.620;2023-07-31T08:23:23;100309.09;;;20.91;64.13
81107;BME280;70588;53.172;8.620;2023-07-31T08:25:48;100304.69;;;20.95;64.13
81107;BME280;70588;53.172;8.620;2023-07-31T08:28:16;100307.16;;;20.97;63.95
81107;BME280;70588;53.172;8.620;2023-07-31T08:30:41;100311.03;;;21.01;64.05
81107;BME280;70588;53.172;8.620;2023-07-31T08:33:07;100299.50;;;21.09;64.56
81107;BME280;70588;53.172;8.620;2023-07-31T08:35:33;100289.03;;;21.16;64.42
81107;BME280;70588;53.172;8.620;2023-07-31T08:37:58;100295.34;;;21.22;63.86
81107;BME280;70588;53.172;8.620;2023-07-31T08:40:23;100295.63;;;21.25;63.36
81107;BME280;70588;53.172;8.620;2023-07-31T08:42:53;100293.97;;;21.29;63.63
81107;BME280;70588;53.172;8.620;2023-07-31T08:45:19;100300.00;;;21.31;63.25
81107;BME280;70588;53.172;8.620;2023-07-31T08:47:50;100300.53;;;21.39;63.00
81107;BME280;70588;53.172;8.620;2023-07-31T08:50:19;100304.41;;;21.38;63.14
81107;BME280;70588;53.172;8.620;2023-07-31T08:52:46;100300.00;;;21.42;62.86
81107;BME280;70588;53.172;8.620;2023-07-31T08:55:12;100303.31;;;21.44;62.72
81107;BME280;70588;53.172;8.620;2023-07-31T08:57:38;100296.16;;;21.48;62.28
81107;BME280;70588;53.172;8.620;2023-07-31T09:00:05;100293.16;;;21.49;62.84
81107;BME280;70588;53.172;8.620;2023-07-31T09:02:41;100296.41;;;21.62;62.75
81107;BME280;70588;53.172;8.620;2023-07-31T09:05:09;100294.22;;;21.59;62.61
81107;BME280;70588;53.172;8.620;2023-07-31T09:07:36;100297.50;;;21.61;62.58
81107;BME280;70588;53.172;8.620;2023-07-31T09:10:02;100293.41;;;21.63;62.44
81107;BME280;70588;53.172;8.620;2023-07-31T09:12:28;100292.28;;;21.64;61.74
81107;BME280;70588;53.172;8.620;2023-07-31T09:14:54;100296.41;;;21.67;61.46
81107;BME280;70588;53.172;8.620;2023-07-31T09:17:32;100298.81;;;21.79;61.37
81107;BME280;70588;53.172;8.620;2023-07-31T09:20:13;100304.09;;;21.75;61.27
81107;BME280;70588;53.172;8.620;2023-07-31T09:22:39;100294.75;;;21.61;60.85
81107;BME280;70588;53.172;8.620;2023-07-31T09:25:33;100289.25;;;21.71;60.75
81107;BME280;70588;53.172;8.620;2023-07-31T09:28:04;100284.06;;;21.59;60.85
81107;BME280;70588;53.172;8.620;2023-07-31T09:30:30;100283.25;;;21.54;60.88
81107;BME280;70588;53.172;8.620;2023-07-31T09:33:04;100282.41;;;21.58;60.90
81107;BME280;70588;53.172;8.620;2023-07-31T09:35:35;100275.28;;;21.52;61.26
81107;BME280;70588;53.172;8.620;2023-07-31T09:38:05;100280.25;;;21.50;61.56
81107;BME280;70588;53.172;8.620;2023-07-31T09:40:35;100272.28;;;21.54;61.66
81107;BME280;70588;53.172;8.620;2023-07-31T09:43:03;100258.28;;;21.50;62.06
81107;BME280;70588;53.172;8.620;2023-07-31T09:45:29;100269.78;;;21.52;62.47
81107;BME280;70588;53.172;8.620;2023-07-31T09:47:56;100268.13;;;21.56;62.30
81107;BME280;70588;53.172;8.620;2023-07-31T09:50:23;100256.03;;;21.62;62.48
81107;BME280;70588;53.172;8.620;2023-07-31T09:52:49;100250.81;;;21.66;62.56
81107;BME280;70588;53.172;8.620;2023-07-31T09:55:15;100249.16;;;21.70;62.24
81107;BME280;70588;53.172;8.620;2023-07-31T09:57:43;100246.66;;;21.74;62.23
81107;BME280;70588;53.172;8.620;2023-07-31T10:00:10;100233.47;;;21.76;62.55
81107;BME280;70588;53.172;8.620;2023-07-31T10:02:37;100237.84;;;21.77;62.56
81107;BME280;70588;53.172;8.620;2023-07-31T10:05:04;100234.28;;;21.81;62.25
81107;BME280;70588;53.172;8.620;2023-07-31T10:07:31;100233.97;;;21.83;62.24
81107;BME280;70588;53.172;8.620;2023-07-31T10:09:59;100232.06;;;21.83;62.55
81107;BME280;70588;53.172;8.620;2023-07-31T10:12:26;100236.72;;;21.83;62.07
81107;BME280;70588;53.172;8.620;2023-07-31T10:14:55;100233.44;;;21.81;62.43
81107;BME280;70588;53.172;8.620;2023-07-31T10:17:22;100223.81;;;21.83;62.32
81107;BME280;70588;53.172;8.620;2023-07-31T10:19:49;100219.97;;;21.84;62.51
81107;BME280;70588;53.172;8.620;2023-07-31T10:22:15;100219.41;;;21.82;62.38
81107;BME280;70588;53.172;8.620;2023-07-31T10:24:42;100222.16;;;21.87;62.37
81107;BME280;70588;53.172;8.620;2023-07-31T10:27:08;100217.22;;;21.84;62.17
81107;BME280;70588;53.172;8.620;2023-07-31T10:29:36;100216.66;;;21.87;62.22
81107;BME280;70588;53.172;8.620;2023-07-31T10:32:03;100226.53;;;21.88;61.97
81107;BME280;70588;53.172;8.620;2023-07-31T10:34:33;100209.22;;;21.93;62.12
81107;BME280;70588;53.172;8.620;2023-07-31T10:37:28;100211.06;;;22.03;61.74
81107;BME280;70588;53.172;8.620;2023-07-31T10:42:30;100197.91;;;22.00;61.69
81107;BME280;70588;53.172;8.620;2023-07-31T10:45:00;100195.72;;;21.97;62.13
81107;BME280;70588;53.172;8.620;2023-07-31T10:47:27;100192.75;;;21.88;62.18
81107;BME280;70588;53.172;8.620;2023-07-31T10:49:52;100199.06;;;21.88;62.78
81107;BME280;70588;53.172;8.620;2023-07-31T10:52:21;100189.97;;;21.93;62.45
81107;BME280;70588;53.172;8.620;2023-07-31T10:55:15;100197.03;;;22.04;62.53
81107;BME280;70588;53.172;8.620;2023-07-31T10:57:44;100194.03;;;22.01;62.86
81107;BME280;70588;53.172;8.620;2023-07-31T11:00:37;100186.28;;;22.13;62.01
81107;BME280;70588;53.172;8.620;2023-07-31T11:03:08;100192.63;;;22.08;62.45
81107;BME280;70588;53.172;8.620;2023-07-31T11:08:24;100186.31;;;22.08;62.58
81107;BME280;70588;53.172;8.620;2023-07-31T11:11:04;100186.28;;;22.13;62.87
81107;BME280;70588;53.172;8.620;2023-07-31T11:13:32;100180.50;;;22.15;62.80
81107;BME280;70588;53.172;8.620;2023-07-31T11:15:58;100182.16;;;22.16;62.74
81107;BME280;70588;53.172;8.620;2023-07-31T11:18:24;100172.78;;;22.17;62.68
81107;BME280;70588;53.172;8.620;2023-07-31T11:20:49;100177.72;;;22.20;62.56
81107;BME280;70588;53.172;8.620;2023-07-31T11:23:16;100173.31;;;22.24;62.48
81107;BME280;70588;53.172;8.620;2023-07-31T11:25:42;100175.22;;;22.23;62.58
81107;BME280;70588;53.172;8.620;2023-07-31T11:28:12;100161.47;;;22.28;62.57
81107;BME280;70588;53.172;8.620;2023-07-31T11:30:39;100171.91;;;22.26;62.80
81107;BME280;70588;53.172;8.620;2023-07-31T11:33:06;100171.38;;;22.29;62.88
81107;BME280;70588;53.172;8.620;2023-07-31T11:35:33;100169.97;;;22.32;62.50
81107;BME280;70588;53.172;8.620;2023-07-31T11:37:59;100180.69;;;22.34;62.40
81107;BME280;70588;53.172;8.620;2023-07-31T11:40:25;100172.16;;;22.35;62.60
81107;BME280;70588;53.172;8.620;2023-07-31T11:42:57;100171.38;;;22.59;61.66
81107;BME280;70588;53.172;8.620;2023-07-31T11:45:25;100172.06;;;22.45;62.45
81107;BME280;70588;53.172;8.620;2023-07-31T11:47:52;100173.16;;;22.44;62.59
81107;BME280;70588;53.172;8.620;2023-07-31T11:50:18;100166.25;;;22.47;62.95
81107;BME280;70588;53.172;8.620;2023-07-31T11:52:44;100171.19;;;22.50;63.14
81107;BME280;70588;53.172;8.620;2023-07-31T11:55:10;100161.59;;;22.47;63.25
81107;BME280;70588;53.172;8.620;2023-07-31T11:57:40;100173.34;;;22.53;63.10
81107;BME280;70588;53.172;8.620;2023-07-31T12:00:08;100169.25;;;22.50;63.42
81107;BME280;70588;53.172;8.620;2023-07-31T12:02:35;100161.06;;;22.45;62.95
81107;BME280;70588;53.172;8.620;2023-07-31T12:05:01;100158.00;;;22.47;63.70
81107;BME280;70588;53.172;8.620;2023-07-31T12:07:27;100158.84;;;22.47;63.46
81107;BME280;70588;53.172;8.620;2023-07-31T12:09:55;100149.44;;;22.54;63.62
81107;BME280;70588;53.172;8.620;2023-07-31T12:12:25;100151.06;;;22.55;63.49
81107;BME280;70588;53.172;8.620;2023-07-31T12:14:50;100151.94;;;22.50;63.51
81107;BME280;70588;53.172;8.620;2023-07-31T12:17:19;100159.59;;;22.53;63.61
81107;BME280;70588;53.172;8.620;2023-07-31T12:19:45;100149.44;;;22.54;63.62
81107;BME280;70588;53.172;8.620;2023-07-31T12:22:13;100150.78;;;22.56;63.67
81107;BME280;70588;53.172;8.620;2023-07-31T12:24:42;100146.94;;;22.57;64.01
81107;BME280;70588;53.172;8.620;2023-07-31T12:27:14;100138.34;;;22.64;63.86
81107;BME280;70588;53.172;8.620;2023-07-31T12:29:41;100138.91;;;22.61;64.12
81107;BME280;70588;53.172;8.620;2023-07-31T12:32:23;100126.72;;;22.72;63.61
81107;BME280;70588;53.172;8.620;2023-07-31T12:34:50;100126.81;;;22.62;64.03
81107;BME280;70588;53.172;8.620;2023-07-31T12:37:15;100117.97;;;22.65;64.32
81107;BME280;70588;53.172;8.620;2023-07-31T12:39:41;100114.13;;;22.66;64.42
81107;BME280;70588;53.172;8.620;2023-07-31T12:42:06;100117.94;;;22.70;64.05
81107;BME280;70588;53.172;8.620;2023-07-31T12:44:32;100114.91;;;22.72;64.12
81107;BME280;70588;53.172;8.620;2023-07-31T12:46:57;100112.66;;;22.74;64.55
81107;BME280;70588;53.172;8.620;2023-07-31T12:49:22;100117.06;;;22.75;64.58
81107;BME280;70588;53.172;8.620;2023-07-31T12:51:48;100115.13;;;22.75;63.95
81107;BME280;70588;53.172;8.620;2023-07-31T12:54:13;100115.88;;;22.81;64.38
81107;BME280;70588;53.172;8.620;2023-07-31T12:56:39;100105.13;;;22.84;64.32
81107;BME280;70588;53.172;8.620;2023-07-31T12:59:05;100115.03;;;22.85;63.97
81107;BME280;70588;53.172;8.620;2023-07-31T13:01:31;100116.38;;;22.88;63.87